Time;durP1;ratioP1;P1;durP2;ratioP2;P2;SDS_P1;SDS_P2;PMS_P1;PMS_P2;Temp;Humidity;BMP_temperature;BMP_pressure;BME280_temperature;BME280_humidity;BME280_pressure;Samples;Min_cycle;Max_cycle;Signal;HPM_P1;HPM_P2
2023/10/19 00:01:59;;;;;;;9.07;8.23;;;13.40;99.90;;;;;;5073060;28;20522;-59
2023/10/19 00:04:25;;;;;;;8.07;7.33;;;13.40;99.90;;;;;;5073386;28;20552;-58
2023/10/19 00:06:53;;;;;;;9.73;8.30;;;13.40;99.90;;;;;;5073197;28;20476;-58
2023/10/19 00:09:20;;;;;;;9.63;8.03;;;13.40;99.90;;;;;;5073271;28;20251;-58
2023/10/19 00:11:47;;;;;;;10.13;8.60;;;13.40;99.90;;;;;;5073207;28;20468;-57
2023/10/19 00:14:15;;;;;;;11.57;9.27;;;13.30;99.90;;;;;;5073234;28;20447;-57
2023/10/19 00:16:44;;;;;;;10.20;9.03;;;13.30;99.90;;;;;;5072927;28;20939;-57
2023/10/19 00:19:19;;;;;;;10.73;9.10;;;13.20;99.90;;;;;;5073263;28;20451;-58
2023/10/19 00:21:50;;;;;;;9.50;8.50;;;13.30;99.90;;;;;;5073270;28;20507;-58
2023/10/19 00:24:18;;;;;;;12.90;10.10;;;13.30;99.90;;;;;;5073127;28;20469;-58
2023/10/19 00:26:45;;;;;;;9.40;8.43;;;13.40;99.90;;;;;;5073149;28;20530;-58
2023/10/19 00:29:29;;;;;;;10.70;9.60;;;13.40;99.90;;;;;;5073108;28;20448;-58
2023/10/19 00:31:57;;;;;;;10.80;8.90;;;13.50;99.90;;;;;;5073101;28;20552;-59
2023/10/19 00:34:26;;;;;;;10.80;9.80;;;13.50;99.90;;;;;;5073094;28;20445;-58
2023/10/19 00:36:55;;;;;;;12.73;9.70;;;13.60;99.90;;;;;;5072790;28;20973;-59
2023/10/19 00:39:22;;;;;;;11.40;10.20;;;13.60;99.90;;;;;;5072993;28;20451;-58
2023/10/19 00:41:49;;;;;;;11.03;9.80;;;13.60;99.90;;;;;;5072945;28;20827;-58
2023/10/19 00:44:22;;;;;;;14.93;10.80;;;13.60;99.90;;;;;;5072895;28;20567;-59
2023/10/19 00:47:01;;;;;;;10.80;9.70;;;13.60;99.90;;;;;;5072919;28;20428;-58
2023/10/19 00:49:31;;;;;;;11.40;9.53;;;13.50;99.90;;;;;;5072690;28;20424;-58
2023/10/19 00:52:03;;;;;;;12.33;11.07;;;13.50;99.90;;;;;;5072811;28;20460;-58
2023/10/19 00:54:35;;;;;;;12.23;10.90;;;13.50;99.90;;;;;;5072851;28;20424;-58
2023/10/19 00:57:06;;;;;;;15.00;12.10;;;13.50;99.90;;;;;;5072811;28;20429;-59
2023/10/19 00:59:36;;;;;;;19.20;9.50;;;13.50;99.90;;;;;;5072870;28;20478;-59
2023/10/19 01:02:16;;;;;;;11.07;9.97;;;13.50;99.90;;;;;;5072784;28;20473;-59
2023/10/19 01:04:46;;;;;;;24.13;11.90;;;13.40;99.90;;;;;;5072849;28;20468;-58
2023/10/19 01:07:15;;;;;;;17.80;11.13;;;13.40;99.90;;;;;;5072733;28;20444;-58
2023/10/19 01:09:44;;;;;;;14.47;11.17;;;13.50;99.90;;;;;;5072502;28;20548;-61
2023/10/19 01:12:25;;;;;;;18.43;10.83;;;13.50;99.90;;;;;;5072774;28;20428;-58
2023/10/19 01:15:07;;;;;;;10.90;9.43;;;13.40;99.90;;;;;;5072711;28;20504;-58
2023/10/19 01:17:38;;;;;;;13.10;10.97;;;13.50;99.90;;;;;;5071264;28;20441;-58
2023/10/19 01:20:17;;;;;;;12.30;11.10;;;13.50;99.90;;;;;;5076256;28;20460;-58
2023/10/19 01:22:50;;;;;;;16.07;11.90;;;13.50;99.90;;;;;;5075960;28;20455;-58
2023/10/19 01:25:17;;;;;;;12.37;10.07;;;13.50;99.90;;;;;;5076175;28;20518;-58
2023/10/19 01:27:44;;;;;;;11.90;10.33;;;13.50;99.90;;;;;;5075736;28;21014;-58
2023/10/19 01:30:14;;;;;;;12.40;11.10;;;13.50;99.90;;;;;;5076016;28;20560;-58
2023/10/19 01:32:42;;;;;;;15.07;11.20;;;13.50;99.90;;;;;;5076772;28;20852;-59
2023/10/19 01:35:11;;;;;;;10.57;9.57;;;13.60;99.90;;;;;;5075960;28;20445;-58
2023/10/19 01:37:37;;;;;;;11.87;10.67;;;13.60;99.90;;;;;;5075888;28;20891;-58
2023/10/19 01:40:07;;;;;;;13.30;11.10;;;13.60;99.90;;;;;;5075815;28;20465;-58
2023/10/19 01:42:34;;;;;;;12.47;11.17;;;13.70;99.90;;;;;;5075914;28;20440;-58
2023/10/19 01:45:01;;;;;;;10.23;9.10;;;13.70;99.90;;;;;;5075718;28;20476;-58
2023/10/19 01:47:28;;;;;;;9.70;8.77;;;13.70;99.90;;;;;;5075809;28;20444;-59
2023/10/19 01:49:55;;;;;;;10.63;9.50;;;13.80;99.90;;;;;;5075673;28;20456;-58
2023/10/19 01:52:24;;;;;;;8.90;8.00;;;13.80;99.90;;;;;;5075704;28;20483;-58
2023/10/19 01:54:58;;;;;;;8.83;6.77;;;13.80;99.90;;;;;;5075356;28;20954;-58
2023/10/19 01:57:26;;;;;;;8.87;7.33;;;13.90;99.90;;;;;;5075592;28;20795;-58
2023/10/19 01:59:52;;;;;;;9.37;6.60;;;13.90;99.90;;;;;;5075495;28;20472;-58
2023/10/19 02:02:21;;;;;;;7.00;5.80;;;14.00;99.90;;;;;;5075233;28;20926;-59
2023/10/19 02:04:49;;;;;;;6.37;5.30;;;14.00;99.90;;;;;;5075369;28;20284;-58
2023/10/19 02:07:17;;;;;;;6.17;5.57;;;14.10;99.90;;;;;;5075450;28;20531;-58
2023/10/19 02:09:43;;;;;;;6.13;5.53;;;14.10;99.90;;;;;;5074919;28;20885;-59
2023/10/19 02:12:10;;;;;;;6.03;5.30;;;14.20;99.90;;;;;;5075358;28;20433;-59
2023/10/19 02:14:39;;;;;;;7.40;6.17;;;14.20;99.90;;;;;;5075248;28;20198;-58
2023/10/19 02:17:05;;;;;;;7.30;5.37;;;14.20;99.90;;;;;;5075284;28;20453;-59
2023/10/19 02:19:32;;;;;;;5.27;4.73;;;14.30;99.90;;;;;;5075678;28;20449;-59
2023/10/19 02:22:00;;;;;;;6.10;5.50;;;14.30;99.90;;;;;;5074721;28;20715;-59
2023/10/19 02:24:27;;;;;;;6.43;5.83;;;14.20;99.90;;;;;;5075018;28;20530;-59
2023/10/19 02:26:55;;;;;;;6.00;5.17;;;14.30;99.90;;;;;;5075056;28;20445;-59
2023/10/19 02:29:22;;;;;;;7.23;5.33;;;14.30;99.90;;;;;;5074982;28;20441;-59
2023/10/19 02:31:50;;;;;;;5.57;5.07;;;14.30;99.90;;;;;;5074484;28;20512;-58
2023/10/19 02:34:16;;;;;;;5.40;4.90;;;14.30;99.90;;;;;;5074850;28;20443;-59
2023/10/19 02:36:44;;;;;;;7.27;5.90;;;14.30;99.90;;;;;;5074775;28;20436;-58
2023/10/19 02:39:11;;;;;;;6.30;5.70;;;14.30;99.90;;;;;;5074519;28;20683;-59
2023/10/19 02:41:40;;;;;;;7.27;6.57;;;14.40;99.90;;;;;;5074718;28;20456;-59
2023/10/19 02:44:09;;;;;;;11.73;8.27;;;14.50;99.90;;;;;;5074627;28;20481;-58
2023/10/19 02:46:38;;;;;;;10.20;9.20;;;14.40;99.90;;;;;;5074838;28;20452;-59
2023/10/19 02:49:11;;;;;;;10.63;9.43;;;14.50;99.90;;;;;;5074612;28;20449;-59
2023/10/19 02:51:38;;;;;;;9.70;8.10;;;14.50;99.90;;;;;;5074613;28;20472;-58
2023/10/19 02:54:06;;;;;;;9.77;7.63;;;14.50;99.90;;;;;;5074635;28;20443;-59
2023/10/19 02:56:35;;;;;;;9.10;7.03;;;14.50;99.90;;;;;;5074480;28;20436;-58
2023/10/19 02:59:03;;;;;;;10.70;7.50;;;14.50;99.90;;;;;;5074365;28;20448;-59
2023/10/19 03:01:31;;;;;;;8.07;7.30;;;14.50;99.90;;;;;;5074239;28;20471;-58
2023/10/19 03:03:59;;;;;;;7.97;7.23;;;14.50;99.90;;;;;;5074133;28;20448;-58
2023/10/19 03:06:32;;;;;;;8.63;7.77;;;14.50;99.90;;;;;;5074305;28;20445;-58
2023/10/19 03:09:00;;;;;;;8.40;7.70;;;14.50;99.90;;;;;;5074773;28;20432;-58
2023/10/19 03:11:27;;;;;;;8.37;7.57;;;14.50;99.90;;;;;;5073673;28;20476;-59
2023/10/19 03:13:54;;;;;;;9.17;7.70;;;14.50;99.90;;;;;;5074133;28;20478;-59
2023/10/19 03:16:23;;;;;;;8.20;7.43;;;14.50;99.90;;;;;;5074180;28;20437;-59
2023/10/19 03:18:49;;;;;;;8.60;7.60;;;14.50;99.90;;;;;;5073948;28;20808;-58
2023/10/19 03:21:18;;;;;;;8.23;7.43;;;14.50;99.90;;;;;;5073961;28;20523;-58
2023/10/19 03:23:45;;;;;;;8.50;6.80;;;14.50;99.90;;;;;;5073899;28;20809;-59
2023/10/19 03:26:22;;;;;;;8.43;7.63;;;14.50;99.90;;;;;;5073749;28;20515;-59
2023/10/19 03:28:48;;;;;;;6.63;5.93;;;14.50;99.90;;;;;;5073858;28;20464;-59
2023/10/19 03:31:17;;;;;;;7.70;6.57;;;14.50;99.90;;;;;;5073708;28;20465;-59
2023/10/19 03:33:47;;;;;;;10.50;6.97;;;14.50;99.90;;;;;;5073813;28;20449;-58
2023/10/19 03:36:14;;;;;;;6.40;5.63;;;14.50;99.90;;;;;;5073947;28;20789;-58
2023/10/19 03:38:41;;;;;;;6.70;6.10;;;14.50;99.90;;;;;;5073774;28;20440;-58
2023/10/19 03:41:10;;;;;;;8.23;6.33;;;14.60;99.90;;;;;;5073262;28;20508;-59
2023/10/19 03:43:40;;;;;;;8.53;6.10;;;14.50;99.90;;;;;;5073691;28;20441;-59
2023/10/19 03:46:14;;;;;;;6.30;5.70;;;14.60;99.90;;;;;;5073528;28;20516;-59
2023/10/19 03:48:41;;;;;;;7.00;6.33;;;14.60;99.90;;;;;;5073654;28;20428;-59
2023/10/19 03:51:12;;;;;;;7.57;6.87;;;14.60;99.90;;;;;;5073576;28;20503;-59
2023/10/19 03:53:39;;;;;;;9.10;7.37;;;14.60;99.90;;;;;;5073530;28;20440;-59
2023/10/19 03:56:10;;;;;;;7.80;7.00;;;14.60;99.90;;;;;;5073516;28;20444;-59
2023/10/19 03:58:40;;;;;;;6.83;6.20;;;14.60;99.90;;;;;;5073219;28;20781;-59
2023/10/19 04:01:07;;;;;;;8.60;6.23;;;14.60;99.90;;;;;;5073363;28;20542;-59
2023/10/19 04:03:36;;;;;;;6.50;5.80;;;14.60;99.90;;;;;;5073409;28;20539;-59
2023/10/19 04:06:04;;;;;;;9.60;5.90;;;14.60;99.90;;;;;;5072954;28;20646;-58
2023/10/19 04:08:37;;;;;;;11.90;6.00;;;14.60;99.90;;;;;;5073358;28;20445;-58
2023/10/19 04:11:11;;;;;;;6.33;5.80;;;14.60;99.90;;;;;;5073076;28;20480;-59
2023/10/19 04:13:39;;;;;;;6.80;6.00;;;14.60;99.90;;;;;;5073357;28;20455;-59
2023/10/19 04:16:09;;;;;;;7.83;6.53;;;14.60;99.90;;;;;;5073294;28;20452;-59
2023/10/19 04:18:39;;;;;;;8.57;6.60;;;14.50;99.90;;;;;;5073537;28;20447;-59
2023/10/19 04:21:06;;;;;;;6.83;6.00;;;14.50;99.90;;;;;;5073258;28;20471;-59
2023/10/19 04:23:36;;;;;;;7.80;7.10;;;14.50;99.90;;;;;;5072943;28;20950;-58
2023/10/19 04:26:10;;;;;;;8.60;6.90;;;14.50;99.90;;;;;;5073130;28;20484;-58
2023/10/19 04:28:44;;;;;;;9.60;7.27;;;14.50;99.90;;;;;;5073214;28;20428;-58
2023/10/19 04:31:13;;;;;;;7.90;6.83;;;14.50;99.90;;;;;;5073103;28;20560;-59
2023/10/19 04:33:42;;;;;;;6.67;5.70;;;14.50;99.90;;;;;;5073055;28;20456;-59
2023/10/19 04:36:11;;;;;;;8.50;7.00;;;14.50;99.90;;;;;;5073091;28;20531;-59
2023/10/19 04:38:37;;;;;;;8.73;6.23;;;14.50;99.90;;;;;;5073088;28;20463;-58
2023/10/19 04:41:08;;;;;;;11.30;5.90;;;14.50;99.90;;;;;;5072649;28;20978;-58
2023/10/19 04:43:35;;;;;;;6.93;5.10;;;14.60;99.90;;;;;;5073099;28;20458;-58
2023/10/19 04:46:10;;;;;;;6.63;4.80;;;14.60;99.90;;;;;;5072923;28;20561;-59
2023/10/19 04:48:39;;;;;;;5.97;4.97;;;14.60;99.90;;;;;;5073024;28;20428;-58
2023/10/19 04:51:06;;;;;;;7.13;5.73;;;14.60;99.90;;;;;;5072678;28;20468;-58
2023/10/19 04:53:33;;;;;;;6.23;5.27;;;14.60;99.90;;;;;;5075094;28;20441;-59
2023/10/19 04:56:01;;;;;;;7.63;5.90;;;14.60;99.90;;;;;;5076855;28;20808;-59
2023/10/19 04:58:28;;;;;;;6.27;5.60;;;14.60;99.90;;;;;;5076466;28;20459;-59
2023/10/19 05:00:55;;;;;;;5.77;5.13;;;14.60;99.90;;;;;;5076365;28;21036;-59
2023/10/19 05:03:23;;;;;;;7.67;6.97;;;14.60;99.90;;;;;;5076675;28;20543;-59
2023/10/19 05:05:51;;;;;;;10.73;7.03;;;14.60;99.90;;;;;;5076541;28;20518;-58
2023/10/19 05:08:18;;;;;;;7.10;6.40;;;14.60;99.90;;;;;;5076510;28;20446;-59
2023/10/19 05:10:44;;;;;;;11.93;6.97;;;14.70;99.90;;;;;;5076036;28;20982;-59
2023/10/19 05:13:11;;;;;;;8.23;6.70;;;14.70;99.90;;;;;;5076449;28;20444;-58
2023/10/19 05:15:38;;;;;;;7.97;7.07;;;14.60;99.90;;;;;;5076112;28;20947;-58
2023/10/19 05:18:06;;;;;;;13.23;7.97;;;14.70;99.90;;;;;;5076387;28;20437;-58
2023/10/19 05:20:34;;;;;;;8.60;6.80;;;14.70;99.90;;;;;;5076152;28;20547;-58
2023/10/19 05:23:00;;;;;;;8.10;6.37;;;14.70;99.90;;;;;;5076192;28;20528;-58
2023/10/19 05:25:27;;;;;;;10.70;7.60;;;14.60;99.90;;;;;;5076101;28;20579;-59
2023/10/19 05:27:54;;;;;;;7.37;6.63;;;14.60;99.90;;;;;;5076957;28;20451;-59
2023/10/19 05:30:22;;;;;;;6.10;5.50;;;14.60;99.90;;;;;;5075700;28;20468;-59
2023/10/19 05:32:49;;;;;;;8.23;6.10;;;14.70;99.90;;;;;;5076251;28;20456;-58
2023/10/19 05:35:22;;;;;;;10.30;7.73;;;14.60;99.90;;;;;;5075798;28;20989;-58
2023/10/19 05:37:50;;;;;;;12.40;7.60;;;14.70;99.90;;;;;;5075817;28;20902;-58
2023/10/19 05:40:18;;;;;;;12.60;7.33;;;14.60;99.90;;;;;;5075642;28;20981;-58
2023/10/19 05:42:46;;;;;;;8.03;7.20;;;14.70;99.90;;;;;;5075968;28;20449;-58
2023/10/19 05:45:16;;;;;;;12.27;7.70;;;14.70;99.90;;;;;;5070847;28;20909;-58
2023/10/19 05:47:43;;;;;;;8.17;6.27;;;14.70;99.90;;;;;;5063830;28;20790;-58
2023/10/19 05:50:14;;;;;;;7.70;6.90;;;14.70;99.90;;;;;;5068957;28;20543;-58
2023/10/19 05:52:42;;;;;;;10.53;6.50;;;14.70;99.90;;;;;;5075343;28;20922;-58
2023/10/19 05:55:10;;;;;;;7.03;6.40;;;14.70;99.90;;;;;;5075576;28;20535;-58
2023/10/19 05:57:40;;;;;;;6.03;5.43;;;14.70;99.90;;;;;;5075744;28;20441;-59
2023/10/19 06:00:12;;;;;;;6.67;6.00;;;14.70;99.90;;;;;;5075938;28;21061;-59
2023/10/19 06:02:40;;;;;;;7.63;5.70;;;14.70;99.90;;;;;;5069212;28;20450;-59
2023/10/19 06:05:07;;;;;;;9.00;5.37;;;14.70;99.90;;;;;;5068987;28;20502;-58
2023/10/19 06:07:33;;;;;;;5.57;5.07;;;14.70;99.90;;;;;;5075518;28;20451;-58
2023/10/19 06:10:04;;;;;;;6.77;5.80;;;14.70;99.90;;;;;;5075116;28;20456;-59
2023/10/19 06:12:32;;;;;;;7.97;5.07;;;14.70;99.90;;;;;;5075238;28;20449;-58
2023/10/19 06:15:00;;;;;;;6.60;5.93;;;14.70;99.90;;;;;;5074819;28;20445;-59
2023/10/19 06:17:27;;;;;;;9.30;6.43;;;14.70;99.90;;;;;;5075296;28;20528;-58
2023/10/19 06:19:55;;;;;;;6.33;5.73;;;14.70;99.90;;;;;;5075219;28;20448;-58
2023/10/19 06:22:21;;;;;;;6.67;5.07;;;14.70;99.90;;;;;;5075191;28;20452;-58
2023/10/19 06:24:48;;;;;;;7.07;6.17;;;14.70;99.90;;;;;;5074831;28;20951;-58
2023/10/19 06:27:15;;;;;;;7.80;5.73;;;14.80;99.90;;;;;;5074757;28;20828;-59
2023/10/19 06:29:43;;;;;;;7.30;6.00;;;14.70;99.90;;;;;;5075000;28;20456;-59
2023/10/19 06:32:12;;;;;;;6.03;5.53;;;14.70;99.90;;;;;;5075435;28;20448;-59
2023/10/19 06:34:39;;;;;;;6.47;5.70;;;14.80;99.90;;;;;;5074617;28;20989;-58
2023/10/19 06:37:08;;;;;;;9.90;5.47;;;14.80;99.90;;;;;;5074610;28;20930;-58
2023/10/19 06:39:40;;;;;;;7.40;5.80;;;14.80;99.90;;;;;;5074802;28;20531;-58
2023/10/19 06:42:09;;;;;;;6.10;5.60;;;14.80;99.90;;;;;;5074642;28;20465;-58
2023/10/19 06:44:36;;;;;;;7.80;5.67;;;14.80;99.90;;;;;;5074670;28;20513;-58
2023/10/19 06:47:06;;;;;;;7.97;5.20;;;14.80;99.90;;;;;;5074553;28;20516;-58
2023/10/19 06:49:34;;;;;;;9.73;5.77;;;14.90;99.90;;;;;;5074830;28;20927;-58
2023/10/19 06:52:00;;;;;;;6.70;6.00;;;14.80;99.90;;;;;;5074477;28;20842;-59
2023/10/19 06:54:29;;;;;;;6.13;5.53;;;14.90;99.90;;;;;;5074604;28;20444;-58
2023/10/19 06:56:55;;;;;;;7.13;5.80;;;14.90;99.90;;;;;;5074475;28;20447;-58
2023/10/19 06:59:23;;;;;;;6.80;6.10;;;14.90;99.90;;;;;;5074512;28;20451;-58
2023/10/19 07:01:51;;;;;;;7.47;4.40;;;14.90;99.90;;;;;;5074324;28;20468;-58
2023/10/19 07:04:19;;;;;;;8.67;5.43;;;14.90;99.90;;;;;;5074342;28;20471;-59
2023/10/19 07:06:47;;;;;;;6.90;5.23;;;14.90;99.90;;;;;;5074188;28;20483;-58
2023/10/19 07:09:15;;;;;;;7.30;4.90;;;14.90;99.90;;;;;;5074152;28;20452;-58
2023/10/19 07:11:44;;;;;;;9.07;4.57;;;15.00;99.90;;;;;;5073719;28;20518;-59
2023/10/19 07:14:12;;;;;;;5.63;4.70;;;15.00;99.90;;;;;;5074144;28;20563;-58
2023/10/19 07:16:40;;;;;;;5.57;5.07;;;15.00;99.90;;;;;;5073488;28;20483;-58
2023/10/19 07:19:06;;;;;;;5.73;4.47;;;15.00;99.90;;;;;;5074116;28;20437;-59
2023/10/19 07:21:36;;;;;;;4.97;4.50;;;15.10;99.90;;;;;;5073972;28;20472;-58
2023/10/19 07:24:05;;;;;;;4.90;4.20;;;15.10;99.90;;;;;;5073980;28;20456;-58
2023/10/19 07:26:33;;;;;;;8.43;4.10;;;15.20;99.90;;;;;;5073828;28;20530;-59
2023/10/19 07:29:00;;;;;;;4.37;3.60;;;15.20;99.90;;;;;;5073897;28;20444;-58
2023/10/19 07:31:28;;;;;;;5.83;3.43;;;15.30;99.90;;;;;;5073762;28;20515;-58
2023/10/19 07:33:57;;;;;;;3.97;3.57;;;15.30;99.90;;;;;;5073587;28;20476;-59
2023/10/19 07:36:24;;;;;;;8.97;4.27;;;15.30;99.90;;;;;;5073866;28;20437;-59
2023/10/19 07:38:52;;;;;;;5.83;3.67;;;15.40;99.90;;;;;;5073616;28;20938;-59
2023/10/19 07:41:20;;;;;;;4.53;4.00;;;15.40;99.90;;;;;;5073766;28;20477;-59
2023/10/19 07:43:46;;;;;;;6.40;4.40;;;15.40;99.90;;;;;;5073662;28;20441;-58
2023/10/19 07:46:13;;;;;;;6.83;4.40;;;15.50;99.90;;;;;;5073538;28;20484;-59
2023/10/19 07:48:40;;;;;;;4.80;3.87;;;15.50;99.90;;;;;;5073571;28;20445;-59
2023/10/19 07:51:07;;;;;;;5.43;4.23;;;15.60;99.90;;;;;;5073567;28;20482;-58
2023/10/19 07:53:34;;;;;;;5.60;4.00;;;15.60;99.90;;;;;;5073178;28;20819;-59
2023/10/19 07:56:02;;;;;;;7.83;4.07;;;15.70;99.90;;;;;;5073192;28;20443;-58
2023/10/19 07:58:28;;;;;;;3.87;3.57;;;15.80;99.90;;;;;;5073491;28;20471;-59
2023/10/19 08:00:56;;;;;;;5.67;4.00;;;15.90;99.90;;;;;;5073358;28;20472;-58
2023/10/19 08:03:23;;;;;;;8.00;3.50;;;16.00;99.90;;;;;;5073437;28;20495;-59
2023/10/19 08:05:50;;;;;;;4.23;3.90;;;16.20;99.90;;;;;;5072976;28;20851;-59
2023/10/19 08:08:17;;;;;;;3.83;3.47;;;16.30;99.90;;;;;;5073378;28;20448;-58
2023/10/19 08:10:44;;;;;;;6.33;3.70;;;16.40;99.90;;;;;;5072969;28;20480;-59
2023/10/19 08:13:12;;;;;;;4.10;3.20;;;16.50;99.90;;;;;;5073346;28;20433;-58
2023/10/19 08:15:40;;;;;;;5.03;3.70;;;16.60;99.90;;;;;;5073282;28;20441;-59
2023/10/19 08:18:06;;;;;;;4.93;3.67;;;16.70;99.90;;;;;;5072933;28;20445;-59
2023/10/19 08:20:36;;;;;;;6.60;3.00;;;16.80;99.90;;;;;;5073157;28;20469;-58
2023/10/19 08:23:05;;;;;;;4.33;3.37;;;16.80;99.90;;;;;;5073151;28;20444;-58
2023/10/19 08:25:32;;;;;;;3.20;2.90;;;16.90;99.90;;;;;;5073149;28;20480;-58
2023/10/19 08:27:59;;;;;;;7.27;3.40;;;16.90;99.90;;;;;;5076111;28;20812;-59
2023/10/19 08:30:27;;;;;;;4.33;3.80;;;17.00;99.90;;;;;;5077241;28;20465;-59
2023/10/19 08:32:54;;;;;;;9.17;3.93;;;17.10;99.90;;;;;;5077200;28;20473;-59
2023/10/19 08:35:24;;;;;;;3.80;3.50;;;17.30;99.90;;;;;;5076907;28;20969;-59
2023/10/19 08:37:51;;;;;;;5.93;4.10;;;17.40;99.90;;;;;;5077205;28;20451;-59
2023/10/19 08:40:18;;;;;;;4.40;3.97;;;17.60;99.90;;;;;;5077133;28;20461;-59
2023/10/19 08:42:46;;;;;;;8.23;3.70;;;17.70;99.90;;;;;;5077115;28;20504;-59
2023/10/19 08:45:13;;;;;;;6.80;3.03;;;17.70;99.90;;;;;;5077019;28;20889;-59
2023/10/19 08:47:50;;;;;;;6.33;3.00;;;17.70;99.90;;;;;;5076861;28;20476;-59
2023/10/19 08:50:20;;;;;;;4.73;3.10;;;17.70;99.90;;;;;;5076849;28;20829;-59
2023/10/19 08:52:47;;;;;;;4.87;3.00;;;17.70;99.90;;;;;;5076595;28;20424;-59
2023/10/19 08:55:14;;;;;;;3.13;2.83;;;17.70;99.70;;;;;;5076472;28;20456;-59
2023/10/19 08:57:41;;;;;;;3.30;2.30;;;17.70;99.70;;;;;;5076750;28;20447;-58
2023/10/19 09:00:09;;;;;;;4.37;2.40;;;17.70;99.50;;;;;;5076824;28;20575;-59
2023/10/19 09:02:36;;;;;;;4.87;2.63;;;17.70;99.50;;;;;;5076724;28;20461;-59
2023/10/19 09:05:08;;;;;;;3.37;2.63;;;17.70;99.30;;;;;;5076646;28;20444;-59
2023/10/19 09:07:35;;;;;;;4.60;3.10;;;17.70;99.60;;;;;;5076558;28;20909;-59
2023/10/19 09:10:05;;;;;;;5.40;2.40;;;17.70;99.90;;;;;;5075953;28;21019;-59
2023/10/19 09:12:32;;;;;;;4.10;3.20;;;17.80;99.90;;;;;;5076599;28;20449;-60
2023/10/19 09:14:58;;;;;;;5.53;3.40;;;17.80;99.90;;;;;;5076322;28;20437;-59
2023/10/19 09:17:29;;;;;;;5.37;3.20;;;17.90;99.90;;;;;;5076220;28;20930;-59
2023/10/19 09:19:56;;;;;;;13.73;4.23;;;18.00;99.90;;;;;;5076389;28;20433;-59
2023/10/19 09:22:24;;;;;;;12.73;4.17;;;18.00;99.90;;;;;;5076407;28;20804;-59
2023/10/19 09:24:53;;;;;;;6.23;3.57;;;18.10;99.90;;;;;;5076365;28;20441;-59
2023/10/19 09:27:21;;;;;;;6.80;3.80;;;18.20;99.90;;;;;;5075897;28;21039;-59
2023/10/19 09:29:51;;;;;;;7.87;3.30;;;18.20;99.90;;;;;;5075883;28;20969;-59
2023/10/19 09:32:19;;;;;;;9.20;2.47;;;18.30;99.90;;;;;;5076206;28;20457;-59
2023/10/19 09:34:47;;;;;;;6.33;2.57;;;18.30;99.90;;;;;;5076077;28;20444;-59
2023/10/19 09:37:17;;;;;;;4.30;2.17;;;18.40;99.60;;;;;;5076045;28;20490;-59
2023/10/19 09:39:45;;;;;;;7.53;1.70;;;18.50;99.30;;;;;;5075175;28;20883;-59
2023/10/19 09:42:16;;;;;;;3.30;1.33;;;18.70;99.30;;;;;;5076018;28;20453;-59
2023/10/19 09:44:44;;;;;;;5.50;1.93;;;18.80;98.30;;;;;;5075939;28;20849;-59
2023/10/19 09:47:13;;;;;;;5.20;1.80;;;18.90;97.80;;;;;;5075745;28;20519;-59
2023/10/19 09:49:42;;;;;;;7.83;1.80;;;19.10;98.20;;;;;;5075770;28;20444;-59
2023/10/19 09:52:10;;;;;;;7.80;1.73;;;19.30;97.60;;;;;;5075747;28;20444;-59
2023/10/19 09:54:48;;;;;;;8.90;1.57;;;19.40;95.60;;;;;;5075811;28;20445;-59
2023/10/19 09:57:20;;;;;;;4.90;1.90;;;19.60;95.80;;;;;;5075717;28;20413;-59
2023/10/19 09:59:55;;;;;;;5.80;2.00;;;19.70;95.00;;;;;;5075548;28;20429;-59
2023/10/19 10:02:22;;;;;;;3.57;1.37;;;19.80;94.00;;;;;;5075615;28;20421;-59
2023/10/19 10:04:48;;;;;;;6.43;2.07;;;19.80;94.00;;;;;;5075289;28;21053;-59
2023/10/19 10:07:16;;;;;;;6.37;2.57;;;19.90;94.10;;;;;;5075994;28;20476;-59
2023/10/19 10:09:46;;;;;;;6.07;2.33;;;20.00;94.30;;;;;;5075384;28;20492;-59
2023/10/19 10:12:18;;;;;;;7.50;2.67;;;20.20;94.10;;;;;;5075445;28;20465;-59
2023/10/19 10:14:58;;;;;;;5.73;1.90;;;20.30;93.20;;;;;;5075328;28;20449;-59
2023/10/19 10:17:25;;;;;;;4.50;2.13;;;20.40;92.70;;;;;;5075786;28;20486;-59
2023/10/19 10:19:56;;;;;;;8.50;2.10;;;20.50;92.50;;;;;;5075158;28;20457;-59
2023/10/19 10:22:23;;;;;;;4.63;1.70;;;20.60;92.70;;;;;;5075175;28;20429;-59
2023/10/19 10:24:56;;;;;;;5.70;2.90;;;20.70;92.90;;;;;;5076010;28;20468;-59
2023/10/19 10:27:23;;;;;;;5.93;2.67;;;20.90;92.80;;;;;;5075057;28;20492;-59
2023/10/19 10:29:58;;;;;;;7.43;2.47;;;21.00;92.90;;;;;;5074957;28;20447;-59
2023/10/19 10:32:44;;;;;;;5.00;2.10;;;21.20;92.70;;;;;;5074931;28;20439;-59
2023/10/19 10:35:10;;;;;;;5.63;2.63;;;21.40;92.90;;;;;;5076046;28;20448;-59
2023/10/19 10:37:39;;;;;;;7.03;2.23;;;21.70;92.60;;;;;;5074862;28;20444;-59
2023/10/19 10:40:09;;;;;;;6.70;2.20;;;22.00;91.60;;;;;;5074777;28;20478;-59
2023/10/19 10:42:41;;;;;;;6.73;1.80;;;22.40;91.70;;;;;;5074789;28;20444;-59
2023/10/19 10:45:20;;;;;;;4.60;1.93;;;22.90;90.70;;;;;;5074690;28;20521;-59
2023/10/19 10:47:46;;;;;;;8.90;2.10;;;23.40;88.30;;;;;;5074624;28;20500;-59
2023/10/19 10:50:20;;;;;;;4.73;1.83;;;23.60;84.10;;;;;;5073348;28;20468;-59
2023/10/19 10:52:48;;;;;;;4.90;2.07;;;23.70;80.90;;;;;;5074625;28;20487;-59
2023/10/19 10:55:16;;;;;;;5.60;2.10;;;23.70;77.90;;;;;;5074565;28;20476;-59
2023/10/19 10:57:44;;;;;;;4.97;1.57;;;23.60;77.10;;;;;;5074533;28;20433;-59
2023/10/19 11:00:15;;;;;;;10.10;2.53;;;23.70;78.10;;;;;;5074380;28;20982;-59
2023/10/19 11:02:43;;;;;;;6.50;2.20;;;23.90;77.40;;;;;;5074483;28;20463;-59
2023/10/19 11:05:12;;;;;;;5.10;2.17;;;23.90;74.20;;;;;;5074405;28;20468;-59
2023/10/19 11:07:39;;;;;;;4.90;2.27;;;23.90;73.30;;;;;;5073982;28;21024;-59
2023/10/19 11:10:06;;;;;;;6.27;2.63;;;23.70;75.20;;;;;;5074108;28;20500;-59
2023/10/19 11:12:34;;;;;;;5.67;2.10;;;23.70;77.20;;;;;;5074213;28;20476;-59
2023/10/19 11:15:09;;;;;;;3.80;2.00;;;23.70;78.70;;;;;;5074022;28;20548;-60
2023/10/19 11:17:43;;;;;;;6.50;2.63;;;23.80;79.70;;;;;;5074124;28;20428;-59
2023/10/19 11:20:21;;;;;;;6.10;2.20;;;23.90;79.90;;;;;;5073676;28;20967;-60
2023/10/19 11:22:50;;;;;;;6.30;2.13;;;23.90;78.40;;;;;;5074062;28;20420;-59
2023/10/19 11:25:20;;;;;;;5.73;2.63;;;23.90;78.40;;;;;;5073609;28;20942;-59
2023/10/19 11:27:48;;;;;;;5.10;2.20;;;23.80;78.30;;;;;;5073847;28;20480;-59
2023/10/19 11:30:24;;;;;;;6.77;2.33;;;23.80;78.50;;;;;;5074342;28;20481;-59
2023/10/19 11:32:52;;;;;;;6.23;2.40;;;23.70;78.40;;;;;;5073868;28;20417;-60
2023/10/19 11:35:19;;;;;;;5.63;2.20;;;23.70;78.10;;;;;;5073437;28;20852;-60
2023/10/19 11:37:49;;;;;;;4.83;2.20;;;23.70;78.20;;;;;;5073731;28;20441;-59
2023/10/19 11:40:16;;;;;;;4.47;2.37;;;23.60;78.40;;;;;;5073673;28;20476;-59
2023/10/19 11:42:44;;;;;;;7.83;2.43;;;23.50;79.10;;;;;;5073559;28;20448;-59
2023/10/19 11:45:12;;;;;;;3.70;2.37;;;23.40;79.40;;;;;;5073941;28;20445;-59
2023/10/19 11:47:39;;;;;;;4.90;2.03;;;23.20;79.70;;;;;;5074118;28;20472;-59
2023/10/19 11:50:06;;;;;;;5.60;2.50;;;23.10;80.20;;;;;;5073523;28;20464;-59
2023/10/19 11:52:33;;;;;;;9.33;2.60;;;23.00;80.60;;;;;;5073616;28;20811;-59
2023/10/19 11:55:00;;;;;;;6.27;2.90;;;22.80;81.20;;;;;;5073605;28;20476;-59
2023/10/19 11:57:26;;;;;;;6.23;2.73;;;22.70;81.80;;;;;;5073521;28;20444;-59
2023/10/19 11:59:53;;;;;;;9.10;2.30;;;22.70;82.70;;;;;;5073398;28;20448;-59
2023/10/19 12:02:21;;;;;;;3.07;1.90;;;22.70;83.40;;;;;;5073072;28;20440;-59
2023/10/19 12:04:48;;;;;;;11.33;2.70;;;22.70;83.90;;;;;;5073439;28;20467;-59
2023/10/19 12:07:15;;;;;;;7.33;2.50;;;22.70;84.40;;;;;;5072950;28;21017;-59
2023/10/19 12:09:42;;;;;;;10.10;2.97;;;22.70;84.90;;;;;;5072901;28;21034;-59
2023/10/19 12:12:09;;;;;;;4.73;2.13;;;22.60;84.90;;;;;;5073402;28;20429;-59
2023/10/19 12:14:36;;;;;;;3.17;2.17;;;22.60;85.20;;;;;;5073254;28;20497;-59
2023/10/19 12:17:03;;;;;;;4.77;2.60;;;22.50;85.30;;;;;;5073221;28;20528;-59
2023/10/19 12:19:32;;;;;;;7.47;2.83;;;22.40;86.10;;;;;;5073489;28;20444;-59
2023/10/19 12:22:00;;;;;;;5.80;2.30;;;22.30;85.70;;;;;;5073382;28;20973;-59
2023/10/19 12:24:28;;;;;;;7.00;2.60;;;22.10;86.30;;;;;;5073461;28;20452;-59
2023/10/19 12:26:56;;;;;;;4.50;2.67;;;22.00;86.70;;;;;;5073131;28;20448;-59
2023/10/19 12:29:22;;;;;;;5.67;2.53;;;21.80;87.30;;;;;;5073287;28;20449;-59
2023/10/19 12:31:49;;;;;;;5.47;2.23;;;21.70;88.10;;;;;;5073185;28;20475;-59
2023/10/19 12:34:16;;;;;;;6.20;2.17;;;21.60;88.90;;;;;;5073142;28;20452;-59
2023/10/19 12:36:46;;;;;;;8.30;3.23;;;21.50;89.70;;;;;;5073156;28;20448;-59
2023/10/19 12:39:35;;;;;;;8.50;2.60;;;21.30;89.40;;;;;;5073332;28;20448;-59
2023/10/19 12:42:03;;;;;;;5.47;2.40;;;21.20;90.00;;;;;;5072710;28;20882;-59
2023/10/19 12:44:32;;;;;;;5.00;2.03;;;21.00;90.40;;;;;;5073101;28;20498;-59
2023/10/19 12:46:58;;;;;;;5.80;2.37;;;21.00;90.80;;;;;;5073079;28;20486;-59
2023/10/19 12:49:27;;;;;;;4.50;2.20;;;20.80;90.90;;;;;;5072691;28;20807;-59
2023/10/19 12:51:55;;;;;;;6.00;2.20;;;20.80;91.50;;;;;;5073045;28;20523;-59
2023/10/19 12:54:22;;;;;;;6.47;2.30;;;20.70;92.00;;;;;;5073100;28;20444;-59